Amoret, Missouri
Current Conditions -  °F | °C
As of 8:30 AM on Thursday 23 Oct 2014 (Local Time) from KOJC Reporting Station
Haze Haze  
Wind Chill: 58°   Ceiling: 500
Heat Index: 58°   Visibility: 5mi
Dew Point: 58°   Wind: 8mph
Humidity: 100%   Direction: 220°SW
Pressure: 30.08"   Gusts: NA
Location:  38.26°N, 94.59°W
Report Text: KOJC 231330Z 22007KT 5SM BR BKN005 OVC100 14/14 A3008 RMK AO2 RAE22 CIG 004V012 P0001 T01440144
Loading
Personal Weather Stations






























Interactive Weather Map
Tropical Storm Tracking
New forecast layout! Learn more

10-Day Weather Forecast

Advertisements
Track Severe Weather on mobile